createdAt,value
2023-03-27T00:02:18.569Z,95.23
2023-03-27T00:04:45.765Z,95.22
2023-03-27T00:07:13.299Z,95.17
2023-03-27T00:09:40.154Z,95.18
2023-03-27T00:12:10.558Z,95.07
2023-03-27T00:14:41.978Z,95.03
2023-03-27T00:17:10.562Z,94.97
2023-03-27T00:19:45.502Z,94.95
2023-03-27T00:22:16.473Z,94.84
2023-03-27T00:24:43.334Z,94.75
2023-03-27T00:27:13.701Z,94.76
2023-03-27T00:29:40.800Z,94.74
2023-03-27T00:34:54.091Z,94.78
2023-03-27T00:37:22.996Z,94.75
2023-03-27T00:39:52.031Z,94.57
2023-03-27T00:42:23.044Z,94.46
2023-03-27T00:44:52.806Z,94.36
2023-03-27T00:47:39.036Z,94.43
2023-03-27T00:50:15.969Z,94.51
2023-03-27T00:52:44.855Z,94.65
2023-03-27T00:55:15.010Z,94.82
2023-03-27T00:57:44.697Z,94.96
2023-03-27T01:00:14.793Z,95.13
2023-03-27T01:03:05.188Z,95.19
2023-03-27T01:05:37.256Z,95.16
2023-03-27T01:08:05.806Z,95.06
2023-03-27T01:11:02.427Z,95.13
2023-03-27T01:14:02.627Z,94.92
2023-03-27T01:16:55.211Z,95.03
2023-03-27T01:19:52.095Z,95.31
2023-03-27T01:22:33.498Z,95.29
2023-03-27T01:25:04.936Z,95.47
2023-03-27T01:27:41.894Z,95.37
2023-03-27T01:30:19.236Z,95.23
2023-03-27T01:33:08.645Z,95.02
2023-03-27T01:35:48.453Z,94.88
2023-03-27T01:38:33.625Z,94.96
2023-03-27T01:41:04.821Z,94.82
2023-03-27T01:43:42.472Z,94.69
2023-03-27T01:46:26.845Z,94.84
2023-03-27T01:49:14.966Z,94.88
2023-03-27T01:51:49.559Z,95.05
2023-03-27T01:54:31.100Z,95.29
2023-03-27T01:57:31.570Z,95.31
2023-03-27T02:00:18.265Z,95.31
2023-03-27T02:02:58.097Z,95.34
2023-03-27T02:05:39.136Z,95.28
2023-03-27T02:08:15.762Z,95.26
2023-03-27T02:10:46.960Z,95.33
2023-03-27T02:13:22.137Z,95.19
2023-03-27T02:15:51.157Z,95.27
2023-03-27T02:18:24.217Z,95.28
2023-03-27T02:20:53.256Z,95.30
2023-03-27T02:23:23.256Z,95.46
2023-03-27T02:25:55.725Z,95.54
2023-03-27T02:28:47.142Z,95.54
2023-03-27T02:31:31.701Z,95.78
2023-03-27T02:34:23.684Z,95.87
2023-03-27T02:37:32.428Z,96.01
2023-03-27T02:40:40.350Z,96.31
2023-03-27T02:43:32.065Z,96.47
2023-03-27T02:46:27.538Z,96.66
2023-03-27T02:49:04.189Z,96.58
2023-03-27T02:51:57.168Z,96.60
2023-03-27T02:54:28.803Z,96.76
2023-03-27T02:57:01.907Z,96.96
2023-03-27T02:59:49.847Z,97.07
2023-03-27T03:02:29.409Z,97.29
2023-03-27T03:05:12.948Z,97.27
2023-03-27T03:07:46.429Z,97.14
2023-03-27T03:10:16.213Z,97.08
2023-03-27T03:12:45.549Z,97.00
2023-03-27T03:15:17.324Z,96.85
2023-03-27T03:17:47.934Z,96.90
2023-03-27T03:20:21.623Z,96.92
2023-03-27T03:22:50.042Z,97.03
2023-03-27T03:25:31.620Z,97.13
2023-03-27T03:28:00.989Z,97.31
2023-03-27T03:30:30.512Z,97.44
2023-03-27T03:33:20.281Z,97.57
2023-03-27T03:35:51.629Z,97.63
2023-03-27T03:38:29.966Z,97.66
2023-03-27T03:41:08.108Z,97.88
2023-03-27T03:43:38.057Z,97.94
2023-03-27T03:46:06.704Z,97.97
2023-03-27T03:48:35.999Z,97.83
2023-03-27T03:51:13.950Z,98.02
2023-03-27T03:53:43.714Z,97.95
2023-03-27T03:56:15.317Z,98.09
2023-03-27T03:58:48.115Z,98.18
2023-03-27T04:01:20.775Z,98.30
2023-03-27T04:03:54.084Z,98.29
2023-03-27T04:06:26.554Z,98.35
2023-03-27T04:09:03.213Z,98.37
2023-03-27T04:11:53.715Z,98.31
2023-03-27T04:14:43.895Z,98.02
2023-03-27T04:17:33.906Z,98.18
2023-03-27T04:20:08.633Z,98.25
2023-03-27T04:22:39.561Z,98.10
2023-03-27T04:25:13.904Z,98.19
2023-03-27T04:27:46.631Z,98.10
2023-03-27T04:30:26.762Z,98.06
2023-03-27T04:33:18.649Z,98.29
2023-03-27T04:36:07.636Z,98.32
2023-03-27T04:38:45.856Z,98.07
2023-03-27T04:41:29.850Z,98.09
2023-03-27T04:44:02.959Z,98.05
2023-03-27T04:46:34.953Z,97.94
2023-03-27T04:49:09.444Z,97.74
2023-03-27T04:51:59.017Z,97.65
2023-03-27T04:54:37.231Z,97.23
2023-03-27T04:57:08.816Z,96.86
2023-03-27T04:59:40.643Z,96.92
2023-03-27T05:02:43.141Z,96.27
2023-03-27T05:05:17.493Z,95.74
2023-03-27T05:07:57.304Z,94.91
2023-03-27T05:10:26.651Z,94.04
2023-03-27T05:12:57.865Z,92.77
2023-03-27T05:15:32.525Z,91.63
2023-03-27T05:18:05.612Z,90.01
2023-03-27T05:20:37.931Z,88.40
2023-03-27T05:23:11.029Z,86.34
2023-03-27T05:25:39.917Z,83.84
2023-03-27T05:28:15.451Z,81.12
2023-03-27T05:30:51.609Z,79.35
2023-03-27T05:33:36.434Z,77.41
2023-03-27T05:42:27.809Z,70.33
2023-03-27T05:44:59.363Z,68.51
2023-03-27T05:47:49.884Z,67.15
2023-03-27T05:50:20.662Z,65.17
2023-03-27T05:52:56.809Z,62.91
2023-03-27T05:55:31.619Z,61.02
2023-03-27T05:58:01.329Z,58.70
2023-03-27T06:00:34.790Z,57.17
2023-03-27T06:03:05.990Z,56.18
2023-03-27T06:06:36.744Z,55.11
2023-03-27T06:09:11.058Z,53.90
2023-03-27T06:11:52.564Z,52.60
2023-03-27T06:14:26.048Z,50.83
2023-03-27T06:17:15.336Z,49.08
2023-03-27T06:19:53.851Z,47.88
2023-03-27T06:22:23.558Z,47.42
2023-03-27T06:24:54.026Z,46.67
2023-03-27T06:27:22.651Z,46.18
2023-03-27T06:29:51.893Z,45.35
2023-03-27T10:07:33.027Z,37.64
2023-03-27T10:10:31.563Z,36.50
2023-03-27T10:13:09.596Z,36.52
2023-03-27T10:15:42.748Z,37.35
2023-03-27T10:18:27.992Z,37.71
2023-03-27T10:21:35.037Z,36.58
2023-03-27T10:24:17.396Z,36.22
2023-03-27T10:27:27.438Z,35.12
2023-03-27T10:30:32.915Z,35.34
2023-03-27T10:33:40.055Z,35.67
2023-03-27T10:36:40.268Z,35.70
2023-03-27T10:39:14.904Z,36.32
2023-03-27T10:42:06.351Z,36.55
2023-03-27T10:44:33.409Z,37.11
2023-03-27T10:47:00.429Z,37.25
2023-03-27T10:49:43.649Z,35.94
2023-03-27T10:52:28.978Z,35.92
2023-03-27T10:55:15.705Z,36.02
2023-03-27T10:57:54.275Z,36.88
2023-03-27T11:00:35.167Z,37.09
2023-03-27T11:03:14.781Z,37.13
2023-03-27T11:05:46.699Z,37.00
2023-03-27T11:08:32.737Z,36.93
2023-03-27T11:11:09.153Z,37.10
2023-03-27T11:13:41.157Z,38.05
2023-03-27T11:16:40.962Z,37.97
2023-03-27T11:19:43.198Z,37.15
2023-03-27T11:22:40.463Z,37.76
2023-03-27T11:25:11.955Z,37.25
2023-03-27T11:28:04.441Z,38.12
2023-03-27T11:30:32.024Z,38.04
2023-03-27T11:33:05.660Z,38.04
2023-03-27T11:35:48.564Z,38.42
2023-03-27T11:39:20.410Z,38.64
2023-03-27T11:41:56.819Z,38.24
2023-03-27T11:44:25.320Z,38.83
2023-03-27T11:47:31.393Z,38.08
2023-03-27T11:50:12.245Z,38.32
2023-03-27T11:53:08.462Z,37.63
2023-03-27T11:56:09.880Z,36.57
2023-03-27T11:58:58.287Z,36.39
2023-03-27T12:01:45.054Z,36.09
2023-03-27T12:04:40.089Z,36.10
2023-03-27T12:07:49.432Z,36.28
2023-03-27T12:10:32.032Z,35.46
2023-03-27T12:13:42.038Z,35.45
2023-03-27T12:16:45.704Z,35.46
2023-03-27T12:19:45.866Z,36.08
2023-03-27T12:22:43.210Z,35.96
2023-03-27T12:25:49.632Z,35.91
2023-03-27T12:28:46.793Z,35.55
2023-03-27T12:32:03.854Z,35.72
2023-03-27T12:34:59.368Z,35.13
2023-03-27T12:37:44.402Z,35.91
2023-03-27T12:40:28.988Z,35.98
2023-03-27T12:43:24.112Z,35.20
2023-03-27T12:46:11.670Z,36.25
2023-03-27T12:48:58.137Z,35.81
2023-03-27T12:51:51.372Z,35.90
2023-03-27T12:54:38.200Z,35.12
2023-03-27T12:57:30.676Z,35.32
2023-03-27T12:59:59.249Z,35.19
2023-03-27T13:03:09.128Z,35.42
2023-03-27T13:06:07.658Z,36.33
2023-03-27T13:08:39.320Z,35.95
2023-03-27T13:11:16.920Z,36.37
2023-03-27T13:14:27.201Z,35.64
2023-03-27T13:17:06.453Z,36.05
2023-03-27T13:20:07.543Z,36.00
2023-03-27T13:22:48.863Z,36.44
2023-03-27T13:26:01.030Z,37.09
2023-03-27T13:28:39.045Z,37.16
2023-03-27T13:31:35.369Z,37.31
2023-03-27T13:34:41.558Z,36.76
2023-03-27T13:37:13.672Z,37.32
2023-03-27T13:39:55.262Z,36.41
2023-03-27T13:42:36.512Z,35.99
2023-03-27T13:45:07.497Z,35.88
2023-03-27T13:47:48.050Z,35.69
2023-03-27T13:50:42.735Z,35.73
2023-03-27T13:53:24.635Z,35.95
2023-03-27T13:56:16.881Z,36.32
2023-03-27T13:59:40.254Z,36.39
2023-03-27T14:02:38.712Z,36.37
2023-03-27T14:05:12.303Z,36.41
2023-03-27T14:08:05.813Z,36.76
2023-03-27T14:11:01.690Z,36.67
2023-03-27T14:13:56.785Z,36.63
2023-03-27T14:16:55.548Z,37.05
2023-03-27T14:19:29.457Z,37.41
2023-03-27T14:21:59.838Z,37.63
2023-03-27T14:24:43.974Z,37.50
2023-03-27T14:27:22.524Z,37.58
2023-03-27T14:30:16.373Z,37.03
2023-03-27T14:32:49.526Z,37.01
2023-03-27T14:35:32.653Z,36.83
2023-03-27T14:38:13.605Z,36.84
2023-03-27T14:40:47.203Z,36.93
2023-03-27T14:43:18.661Z,37.26
2023-03-27T14:45:52.231Z,37.20
2023-03-27T14:48:52.023Z,37.61
2023-03-27T14:51:34.190Z,37.66
2023-03-27T14:54:04.873Z,37.46
2023-03-27T14:56:46.943Z,37.59
2023-03-27T14:59:54.702Z,37.38
2023-03-27T15:02:38.340Z,37.61
2023-03-27T15:05:16.188Z,38.01
2023-03-27T15:07:49.106Z,37.99
2023-03-27T15:10:31.251Z,38.44
2023-03-27T15:13:13.019Z,38.84
2023-03-27T15:15:46.480Z,38.38
2023-03-27T15:18:16.550Z,38.37
2023-03-27T15:20:43.672Z,38.58
2023-03-27T15:23:33.132Z,38.97
2023-03-27T15:26:04.809Z,39.33
2023-03-27T15:28:41.894Z,39.42
2023-03-27T15:31:14.643Z,39.71
2023-03-27T15:33:55.436Z,39.94
2023-03-27T15:36:30.190Z,40.11
2023-03-27T15:39:03.557Z,40.34
2023-03-27T15:41:32.043Z,40.61
2023-03-27T15:44:08.753Z,40.90
2023-03-27T15:46:57.598Z,41.00
2023-03-27T15:49:30.311Z,41.19
2023-03-27T15:52:27.885Z,41.46
2023-03-27T15:54:55.312Z,42.05
2023-03-27T15:57:22.463Z,42.22
2023-03-27T15:59:52.148Z,42.80
2023-03-27T16:02:21.049Z,43.16
2023-03-27T16:04:54.722Z,43.29
2023-03-27T16:07:41.937Z,43.78
2023-03-27T16:10:10.525Z,43.66
2023-03-27T16:13:00.492Z,43.46
2023-03-27T16:15:38.101Z,43.62
2023-03-27T16:18:21.509Z,43.94
2023-03-27T16:20:48.677Z,44.01
2023-03-27T16:23:19.417Z,43.80
2023-03-27T16:26:10.038Z,43.99
2023-03-27T16:28:38.306Z,44.19
2023-03-27T16:31:12.636Z,44.32
2023-03-27T16:34:44.784Z,44.80
2023-03-27T16:37:25.049Z,46.07
2023-03-27T16:40:07.295Z,46.74
2023-03-27T16:42:49.464Z,47.22
2023-03-27T16:48:05.958Z,48.07
2023-03-27T16:50:37.451Z,48.68
2023-03-27T16:53:04.613Z,49.19
2023-03-27T16:55:31.490Z,49.81
2023-03-27T16:57:58.878Z,50.28
2023-03-27T17:00:26.527Z,50.78
2023-03-27T17:02:53.709Z,51.28
2023-03-27T17:05:21.042Z,52.05
2023-03-27T17:07:50.001Z,53.02
2023-03-27T17:10:27.920Z,53.87
2023-03-27T17:12:56.438Z,54.27
2023-03-27T17:15:23.914Z,54.62
2023-03-27T17:17:52.943Z,55.17
2023-03-27T17:20:20.100Z,55.48
2023-03-27T17:22:47.041Z,55.88
2023-03-27T17:25:15.333Z,56.30
2023-03-27T17:27:42.995Z,56.58
2023-03-27T17:30:10.578Z,56.96
2023-03-27T17:32:46.349Z,57.27
2023-03-27T17:35:13.257Z,57.49
2023-03-27T17:37:47.663Z,57.82
2023-03-27T17:40:38.706Z,58.00
2023-03-27T17:43:05.672Z,58.20
2023-03-27T17:45:33.692Z,58.31
2023-03-27T17:48:00.644Z,58.48
2023-03-27T17:50:27.586Z,58.60
2023-03-27T17:52:55.102Z,58.87
2023-03-27T17:55:22.033Z,58.98
2023-03-27T17:58:02.101Z,58.88
2023-03-27T18:00:35.601Z,58.85
2023-03-27T18:03:03.477Z,58.83
2023-03-27T18:05:33.071Z,58.91
2023-03-27T18:08:00.255Z,58.91
2023-03-27T18:10:31.561Z,58.92
2023-03-27T18:13:03.169Z,58.98
2023-03-27T18:15:30.772Z,59.07
2023-03-27T18:17:59.044Z,59.11
2023-03-27T18:20:26.797Z,59.13
2023-03-27T18:22:56.361Z,59.10
2023-03-27T18:25:26.165Z,59.00
2023-03-27T18:27:53.178Z,59.04
2023-03-27T18:30:20.512Z,59.02
2023-03-27T18:32:48.244Z,58.92
2023-03-27T18:35:19.055Z,58.79
2023-03-27T18:37:46.444Z,58.73
2023-03-27T18:40:15.024Z,58.59
2023-03-27T18:43:01.726Z,58.40
2023-03-27T18:45:29.018Z,58.40
2023-03-27T18:47:55.967Z,58.27
2023-03-27T18:50:22.957Z,58.22
2023-03-27T18:52:50.120Z,58.27
2023-03-27T18:55:17.982Z,58.33
2023-03-27T18:57:45.582Z,58.63
2023-03-27T19:00:17.794Z,58.50
2023-03-27T19:02:47.439Z,58.45
2023-03-27T19:05:15.676Z,58.52
2023-03-27T19:07:44.391Z,58.35
2023-03-27T19:10:13.467Z,58.31
2023-03-27T19:12:40.530Z,58.23
2023-03-27T19:15:33.835Z,58.14
2023-03-27T19:18:27.821Z,58.05
2023-03-27T19:21:15.221Z,58.11
2023-03-27T19:23:48.992Z,58.25
2023-03-27T19:26:21.459Z,58.34
2023-03-27T19:31:37.818Z,58.44
2023-03-27T19:34:05.630Z,58.47
2023-03-27T19:36:32.702Z,58.43
2023-03-27T19:38:59.926Z,58.57
2023-03-27T19:41:27.238Z,58.63
2023-03-27T19:43:54.256Z,58.83
2023-03-27T19:46:24.007Z,58.90
2023-03-27T19:48:53.349Z,58.90
2023-03-27T19:51:44.394Z,59.10
2023-03-27T19:54:16.187Z,59.17
2023-03-27T19:56:43.503Z,59.30
2023-03-27T19:59:17.857Z,59.55
2023-03-27T20:01:53.846Z,59.80
2023-03-27T20:04:21.696Z,60.02
2023-03-27T20:06:56.851Z,60.33
2023-03-27T20:09:24.689Z,60.65
2023-03-27T20:11:57.213Z,60.88
2023-03-27T20:14:28.248Z,61.17
2023-03-27T20:16:56.098Z,61.30
2023-03-27T20:19:34.355Z,61.36
2023-03-27T20:22:11.264Z,61.48
2023-03-27T20:24:41.819Z,61.59
2023-03-27T20:27:08.943Z,61.75
2023-03-27T20:29:40.362Z,61.90
2023-03-27T20:32:08.884Z,61.90
2023-03-27T20:34:37.270Z,61.95
2023-03-27T20:37:11.370Z,61.89
2023-03-27T20:40:01.316Z,61.91
2023-03-27T20:42:30.342Z,61.97
2023-03-27T20:44:57.823Z,61.93
2023-03-27T20:47:25.443Z,61.89
2023-03-27T20:49:52.929Z,61.71
2023-03-27T20:52:22.183Z,61.64
2023-03-27T20:54:49.371Z,61.53
2023-03-27T20:57:17.706Z,61.65
2023-03-27T20:59:54.278Z,61.71
2023-03-27T21:02:21.857Z,61.77
2023-03-27T21:04:49.476Z,61.91
2023-03-27T21:07:16.615Z,62.01
2023-03-27T21:09:45.654Z,62.09
2023-03-27T21:12:13.038Z,62.17
2023-03-27T21:14:58.524Z,62.42
2023-03-27T21:17:36.118Z,62.73
2023-03-27T21:20:08.469Z,63.02
2023-03-27T21:22:39.742Z,63.28
2023-03-27T21:25:09.316Z,63.43
2023-03-27T21:27:36.608Z,63.47
2023-03-27T21:30:05.977Z,63.58
2023-03-27T21:32:33.774Z,63.82
2023-03-27T21:35:09.148Z,64.05
2023-03-27T21:38:02.131Z,64.34
2023-03-27T21:40:31.230Z,64.54
2023-03-27T21:43:09.428Z,64.63
2023-03-27T21:45:37.303Z,64.74
2023-03-27T21:48:05.830Z,64.86
2023-03-27T21:50:33.646Z,65.02
2023-03-27T21:53:02.093Z,65.18
2023-03-27T21:55:31.614Z,65.37
2023-03-27T21:57:59.017Z,65.61
2023-03-27T22:00:26.710Z,66.02
2023-03-27T22:03:02.424Z,66.31
2023-03-27T22:05:29.396Z,66.54
2023-03-27T22:07:57.279Z,66.65
2023-03-27T22:10:24.788Z,66.89
2023-03-27T22:12:52.086Z,67.22
2023-03-27T22:15:22.556Z,67.40
2023-03-27T22:17:51.829Z,67.62
2023-03-27T22:20:19.279Z,67.96
2023-03-27T22:23:41.104Z,68.20
2023-03-27T22:26:09.442Z,68.43
2023-03-27T22:28:42.523Z,68.85
2023-03-27T22:31:10.913Z,68.90
2023-03-27T22:33:39.624Z,69.28
2023-03-27T22:36:11.183Z,69.44
2023-03-27T22:38:40.366Z,69.69
2023-03-27T22:41:11.279Z,69.69
2023-03-27T22:43:40.429Z,69.66
2023-03-27T22:46:13.898Z,69.65
2023-03-27T22:48:43.781Z,69.53
2023-03-27T22:51:12.573Z,69.63
2023-03-27T22:53:45.168Z,69.50
2023-03-27T22:56:13.760Z,69.56
2023-03-27T22:58:42.525Z,69.51
2023-03-27T23:01:11.074Z,69.63
2023-03-27T23:03:39.832Z,69.70
2023-03-27T23:06:18.373Z,69.60
2023-03-27T23:08:48.721Z,69.36
2023-03-27T23:11:17.255Z,69.22
2023-03-27T23:13:49.797Z,68.84
2023-03-27T23:16:18.372Z,68.81
2023-03-27T23:18:46.949Z,68.67
2023-03-27T23:21:18.234Z,68.76
2023-03-27T23:23:48.771Z,68.74
2023-03-27T23:26:18.394Z,68.86
2023-03-27T23:28:47.859Z,69.01
2023-03-27T23:31:18.031Z,69.09
2023-03-27T23:33:47.718Z,69.25
2023-03-27T23:36:25.108Z,69.18
2023-03-27T23:38:54.085Z,69.22
2023-03-27T23:41:22.289Z,69.18
2023-03-27T23:43:51.138Z,69.32
2023-03-27T23:46:19.889Z,69.05
2023-03-27T23:48:49.549Z,69.16
2023-03-27T23:51:18.383Z,69.36
2023-03-27T23:53:48.749Z,69.40
2023-03-27T23:56:17.130Z,69.62
2023-03-27T23:58:45.799Z,69.79
